Alpine, Virginia
Current Conditions -  °F | °C
As of 9:35 PM on Tuesday 21 Oct 2014 (Local Time) from K8W2 Reporting Station
Overcast Overcast  
Wind Chill: 10°   Ceiling: 4800
Heat Index: 10°   Visibility: 10mi
Dew Point:   Wind: 0mph
Humidity: 92%   Direction: NA
Pressure: 29.94"   Gusts: NA
Location:  38.6726°N, 78.6691°W
Report Text: K8W2 220135Z AUTO 00000KT 10SM SCT041 OVC048 10/09 A2994 RMK AO1 P0001 T00970085
Loading
Personal Weather Stations






























Interactive Weather Map
Tropical Storm Tracking
New forecast layout! Learn more

10-Day Weather Forecast

Advertisements
Track Severe Weather on mobile